Ellensburg, WA

9:19 AM PDT on March 29, 2015 (GMT -0700)
Ellensburg WA | | Change Station
CLOSE
Current Station
Personal Weather Station
Location: Ellensburg, WA
Elevation: 1541 ft
Nearby Weather Stations

Elev 1541 ft 47.00 °N, 120.55 °W | Updated 9 minutes ago

Scattered Clouds
Scattered Clouds
47.7 °F
Feels Like 46 °F
N
4.0
Wind Variable Wind from ESE
Gusts 6.0 mph

Today
High -- | Low -- °F
--% Chance of Precip.
Yesterday
High -- | Low -- °F
Precip. -- in
6:47 AM 7:27 PM
Waxing Gibbous, 72% visible
Pressure 30.25 in
Visibility 10.0 miles
Clouds Scattered Clouds 6500 ft
Windchill 46 °F
Dew Point 41 °F
Humidity 78%
Rainfall 0.00 in
Snow Depth Not available.
UV 1 out of 12
Pollen 9.70 out of 12
Air Quality Not available.
Flu Activity Not available.
METAR KELN 291553Z AUTO 00000KT 10SM SCT065 08/04 A3023 RMK AO2 SLP244 T00830039

More Conditions Fewer Conditions

Pressure 30.25 in
Visibility 10.0 miles
Clouds Scattered Clouds 6500 ft
Windchill 46 °F
Dew Point 41 °F
Humidity 78%
Rainfall 0.00 in
Snow Depth Not available.
UV 1 out of 12
Pollen 9.70 out of 12
Air Quality Not available.
Flu Activity Not available.
METAR KELN 291553Z AUTO 00000KT 10SM SCT065 08/04 A3023 RMK AO2 SLP244 T00830039

More Conditions Fewer Conditions

10-Day Weather Forecast

Almanac

Astronomy

Mar. 29, 2015 Rise Set
Actual Time
Civil Twilight
Nautical Twilight
Astronomical Twilight
Moon
Length of Visible Light
Length of Day
Tomorrow will be .
, % of the Moon is Illuminated

Today's Extremes

State Highs State Lows

Community

WunderPhotos

Upload Photos

1,809,279 photos uploaded!

WunderBlogs® & News

Nearby

Air Quality

  Air Quality AQ Index Pollutant
Not available.

Snow Depth

Station Depth Elevation

Earthquake Activity

City Distance Mag. Time & Date
Minimum magnitude displayed is 2.5.

Coastal Water Temperatures

Place Temperature

Stations

Nearby Weather Stations

Station Location Temp. Windchill Dew Point Humidity Wind Precip. Elev Updated Type